KMJX/MJX METAR and TAF weather

Enter ICAO airport designator
Station Type Date Time Source
KMJX METAR 2020/09/20 14:56 UTC NOAA

KMJX 201456Z AUTO 03011G18KT 10SM CLR 16/05 A3051 RMK AO2 SLP334 T01610050 52019


Station Type Date Time Source
KMJX Decoded METAR 2020/09/20 14:56 UTC NOAA

Station name not available
Sep 20, 2020 - 10:56 AM EDT / 2020.09.20 1456 UTC
Wind: from the NNE (030 degrees) at 13 MPH (11 KT) gusting to 21 MPH (18 KT):0
Visibility: 10 mile(s):0
Sky conditions: clear
Temperature: 61.0 F (16.1 C)
Dew Point: 41.0 F (5.0 C)
Relative Humidity: 47%
Pressure (altimeter): 30.51 in. Hg (1033 hPa)
Pressure tendency: 0.06 inches (1.9 hPa) higher than three hours ago
ob: KMJX 201456Z AUTO 03011G18KT 10SM CLR 16/05 A3051 RMK AO2 SLP334 T01610050 52019
cycle: 15

Station Type Date Time Source
KMJX TAF UTC NOAA

Error!

Example: see airport list